createdAt,value
2022-09-21T00:01:41.093Z,4.14
2022-09-21T00:04:10.677Z,4.10
2022-09-21T00:06:39.540Z,4.02
2022-09-21T00:09:09.400Z,4.07
2022-09-21T00:11:38.750Z,4.08
2022-09-21T00:14:10.541Z,4.02
2022-09-21T00:16:41.556Z,3.93
2022-09-21T00:19:10.263Z,3.94
2022-09-21T00:21:39.308Z,3.84
2022-09-21T00:24:08.685Z,3.84
2022-09-21T00:26:37.036Z,3.87
2022-09-21T00:29:06.887Z,3.86
2022-09-21T00:31:35.326Z,3.90
2022-09-21T00:34:07.823Z,3.92
2022-09-21T00:36:36.681Z,3.90
2022-09-21T00:39:05.106Z,3.89
2022-09-21T00:41:35.324Z,3.94
2022-09-21T00:44:33.165Z,3.95
2022-09-21T00:47:10.807Z,3.95
2022-09-21T00:49:42.589Z,3.95
2022-09-21T00:52:14.822Z,3.91
2022-09-21T00:54:49.992Z,3.78
2022-09-21T00:57:21.930Z,3.63
2022-09-21T00:59:53.291Z,3.56
2022-09-21T01:02:22.463Z,3.56
2022-09-21T01:04:55.689Z,3.61
2022-09-21T01:07:30.605Z,3.64
2022-09-21T01:10:03.685Z,3.65
2022-09-21T01:12:56.878Z,3.62
2022-09-21T01:15:39.426Z,3.54
2022-09-21T01:18:21.228Z,3.51
2022-09-21T01:21:18.319Z,3.42
2022-09-21T01:24:37.481Z,3.39
2022-09-21T01:27:46.993Z,3.34
2022-09-21T01:30:20.024Z,3.28
2022-09-21T01:32:57.423Z,3.30
2022-09-21T01:35:33.548Z,3.32
2022-09-21T01:38:08.453Z,3.37
2022-09-21T01:40:43.553Z,3.36
2022-09-21T01:43:19.176Z,3.30
2022-09-21T01:45:54.884Z,3.22
2022-09-21T01:48:25.700Z,3.15
2022-09-21T01:50:58.401Z,3.06
2022-09-21T01:53:34.765Z,3.01
2022-09-21T01:56:11.631Z,3.03
2022-09-21T01:58:51.200Z,3.09
2022-09-21T02:01:28.523Z,3.14
2022-09-21T02:04:02.628Z,3.04
2022-09-21T02:06:32.997Z,2.96
2022-09-21T02:09:01.777Z,2.91
2022-09-21T02:11:29.973Z,2.90
2022-09-21T02:13:59.521Z,2.97
2022-09-21T02:16:39.682Z,2.99
2022-09-21T02:19:22.137Z,3.04
2022-09-21T02:22:05.089Z,3.12
2022-09-21T02:24:42.212Z,3.23
2022-09-21T02:27:27.667Z,3.22
2022-09-21T02:30:07.857Z,3.14
2022-09-21T02:32:50.430Z,2.97
2022-09-21T02:35:32.582Z,2.90
2022-09-21T02:38:12.102Z,2.83
2022-09-21T02:40:50.485Z,2.82
2022-09-21T02:43:25.864Z,2.75
2022-09-21T02:46:01.299Z,2.66
2022-09-21T02:48:37.987Z,2.59
2022-09-21T02:51:14.025Z,2.59
2022-09-21T02:53:44.347Z,2.52
2022-09-21T02:56:14.815Z,2.41
2022-09-21T02:58:49.879Z,2.84
2022-09-21T03:01:20.244Z,2.84
2022-09-21T03:03:50.215Z,2.97
2022-09-21T03:06:18.404Z,2.83
2022-09-21T03:08:47.606Z,2.73
2022-09-21T03:11:18.389Z,2.56
2022-09-21T03:13:47.286Z,2.51
2022-09-21T03:16:15.648Z,2.42
2022-09-21T03:18:44.452Z,2.37
2022-09-21T03:21:14.835Z,2.38
2022-09-21T03:23:43.264Z,2.33
2022-09-21T03:26:11.490Z,2.38
2022-09-21T03:28:39.877Z,2.35
2022-09-21T03:31:08.513Z,2.33
2022-09-21T03:33:36.896Z,2.25
2022-09-21T03:36:05.172Z,2.26
2022-09-21T03:38:34.890Z,2.22
2022-09-21T03:41:03.465Z,2.15
2022-09-21T03:43:32.033Z,2.13
2022-09-21T03:46:00.599Z,2.14
2022-09-21T03:48:28.865Z,2.22
2022-09-21T03:50:58.158Z,2.10
2022-09-21T03:53:26.402Z,1.95
2022-09-21T03:55:55.950Z,1.86
2022-09-21T03:58:24.523Z,1.90
2022-09-21T04:00:52.796Z,1.98
2022-09-21T04:03:21.015Z,2.07
2022-09-21T04:05:49.503Z,2.14
2022-09-21T04:08:17.733Z,2.15
2022-09-21T04:10:45.879Z,2.16
2022-09-21T04:13:17.595Z,2.11
2022-09-21T04:15:45.786Z,2.09
2022-09-21T04:18:13.981Z,2.05
2022-09-21T04:20:42.196Z,2.07
2022-09-21T04:23:10.412Z,2.10
2022-09-21T04:25:38.602Z,2.09
2022-09-21T04:28:07.590Z,2.15
2022-09-21T04:30:38.113Z,2.26
2022-09-21T04:33:06.701Z,2.33
2022-09-21T04:35:34.991Z,2.31
2022-09-21T04:38:03.316Z,2.13
2022-09-21T04:40:31.532Z,1.97
2022-09-21T04:42:59.787Z,1.89
2022-09-21T04:45:27.998Z,1.80
2022-09-21T04:47:57.651Z,1.85
2022-09-21T04:50:26.257Z,1.94
2022-09-21T04:53:05.835Z,1.98
2022-09-21T04:55:34.298Z,1.94
2022-09-21T04:58:02.979Z,1.89
2022-09-21T05:00:31.952Z,1.93
2022-09-21T05:03:01.710Z,2.04
2022-09-21T05:05:29.954Z,2.07
2022-09-21T05:07:58.149Z,2.11
2022-09-21T05:10:25.727Z,2.16
2022-09-21T05:12:53.941Z,2.14
2022-09-21T05:15:22.310Z,2.06
2022-09-21T05:17:50.538Z,2.00
2022-09-21T05:20:20.151Z,1.99
2022-09-21T05:22:48.671Z,2.02
2022-09-21T05:25:17.544Z,2.10
2022-09-21T05:27:45.792Z,2.21
2022-09-21T05:30:16.039Z,2.15
2022-09-21T05:32:53.157Z,2.21
2022-09-21T05:35:34.144Z,2.29
2022-09-21T05:38:13.453Z,2.32
2022-09-21T05:40:42.509Z,2.36
2022-09-21T05:43:11.980Z,2.54
2022-09-21T05:45:47.739Z,2.66
2022-09-21T05:48:20.674Z,2.78
2022-09-21T05:51:00.267Z,3.09
2022-09-21T05:53:57.126Z,3.60
2022-09-21T05:56:49.795Z,4.14
2022-09-21T05:59:45.165Z,4.71
2022-09-21T06:02:28.978Z,5.37
2022-09-21T06:05:00.747Z,5.79
2022-09-21T06:07:30.254Z,6.01
2022-09-21T06:09:58.443Z,6.24
2022-09-21T06:12:26.686Z,6.43
2022-09-21T06:14:56.397Z,6.66
2022-09-21T06:17:27.314Z,6.97
2022-09-21T06:19:55.912Z,7.29
2022-09-21T06:22:24.094Z,7.49
2022-09-21T06:24:53.643Z,7.71
2022-09-21T06:27:21.867Z,8.01
2022-09-21T06:29:50.120Z,8.20
2022-09-21T06:32:20.739Z,8.66
2022-09-21T06:34:49.905Z,8.74
2022-09-21T06:37:18.500Z,8.81
2022-09-21T06:39:46.796Z,9.15
2022-09-21T06:42:16.381Z,10.14
2022-09-21T06:44:44.770Z,10.74
2022-09-21T06:47:12.982Z,10.63
2022-09-21T06:49:42.619Z,10.96
2022-09-21T06:52:11.025Z,10.77
2022-09-21T06:54:39.685Z,11.08
2022-09-21T06:57:08.269Z,11.27
2022-09-21T06:59:37.821Z,11.56
2022-09-21T07:02:06.308Z,11.98
2022-09-21T07:04:34.589Z,12.64
2022-09-21T07:07:04.683Z,11.74
2022-09-21T07:12:22.027Z,11.79
2022-09-21T07:14:51.561Z,11.86
2022-09-21T07:17:19.993Z,11.80
2022-09-21T07:19:48.252Z,12.23
2022-09-21T07:22:16.483Z,12.63
2022-09-21T07:24:44.774Z,13.35
2022-09-21T07:27:13.034Z,13.45
2022-09-21T07:29:41.474Z,13.55
2022-09-21T07:32:11.082Z,13.38
2022-09-21T07:34:39.300Z,13.62
2022-09-21T07:37:07.524Z,13.79
2022-09-21T07:39:36.497Z,14.43
2022-09-21T07:42:04.867Z,14.93
2022-09-21T07:44:34.169Z,14.85
2022-09-21T07:47:03.385Z,15.04
2022-09-21T07:49:33.087Z,14.99
2022-09-21T07:52:05.052Z,15.11
2022-09-21T07:54:37.054Z,15.01
2022-09-21T07:57:23.579Z,15.72
2022-09-21T07:59:51.834Z,16.03
2022-09-21T08:02:20.830Z,15.52
2022-09-21T08:04:50.522Z,16.06
2022-09-21T08:07:19.173Z,16.05
2022-09-21T08:09:49.379Z,16.79
2022-09-21T08:12:20.563Z,17.35
2022-09-21T08:14:48.863Z,17.22
2022-09-21T08:17:17.449Z,16.94
2022-09-21T08:19:45.767Z,17.90
2022-09-21T08:22:15.453Z,17.95
2022-09-21T08:24:44.546Z,18.12
2022-09-21T08:27:12.910Z,17.82
2022-09-21T08:29:41.526Z,17.53
2022-09-21T08:32:13.436Z,17.59
2022-09-21T08:34:51.190Z,18.13
2022-09-21T08:37:21.951Z,18.13
2022-09-21T08:39:50.145Z,18.03
2022-09-21T08:42:40.912Z,18.67
2022-09-21T08:45:17.606Z,18.69
2022-09-21T08:47:49.409Z,18.42
2022-09-21T08:50:40.749Z,19.00
2022-09-21T08:53:15.940Z,19.15
2022-09-21T08:55:44.287Z,19.71
2022-09-21T08:58:24.407Z,19.88
2022-09-21T09:01:09.603Z,19.60
2022-09-21T09:04:04.381Z,20.03
2022-09-21T09:06:48.063Z,19.82
2022-09-21T09:09:45.835Z,19.92
2022-09-21T09:12:34.085Z,20.49
2022-09-21T09:15:36.573Z,20.29
2022-09-21T09:18:19.797Z,20.57
2022-09-21T09:20:57.133Z,20.95
2022-09-21T09:23:29.265Z,20.98
2022-09-21T09:26:09.001Z,21.06
2022-09-21T09:28:50.104Z,20.85
2022-09-21T09:31:26.169Z,21.57
2022-09-21T09:34:03.166Z,21.24
2022-09-21T09:36:57.274Z,21.22
2022-09-21T09:39:23.608Z,20.64
2022-09-21T09:42:41.315Z,21.18
2022-09-21T09:45:43.231Z,21.14
2022-09-21T09:48:43.033Z,21.65
2022-09-21T09:51:14.003Z,21.06
2022-09-21T09:53:42.389Z,21.45
2022-09-21T09:56:13.153Z,21.26
2022-09-21T09:58:49.614Z,21.07
2022-09-21T10:01:42.995Z,21.10
2022-09-21T10:04:14.167Z,21.20
2022-09-21T10:06:46.632Z,21.49
2022-09-21T10:09:27.575Z,21.54
2022-09-21T10:12:01.565Z,21.54
2022-09-21T10:14:36.089Z,22.14
2022-09-21T10:17:09.256Z,21.64
2022-09-21T10:19:38.198Z,21.41
2022-09-21T10:22:07.284Z,21.72
2022-09-21T10:24:40.743Z,21.55
2022-09-21T10:27:15.790Z,21.49
2022-09-21T10:29:48.393Z,21.85
2022-09-21T10:32:23.887Z,22.06
2022-09-21T10:35:15.317Z,22.35
2022-09-21T10:37:47.152Z,22.83
2022-09-21T10:40:30.803Z,22.81
2022-09-21T10:43:01.440Z,21.54
2022-09-21T10:45:34.789Z,21.49
2022-09-21T10:48:14.624Z,21.96
2022-09-21T10:50:45.952Z,22.14
2022-09-21T10:53:24.872Z,22.28
2022-09-21T10:56:17.909Z,22.05
2022-09-21T10:59:22.479Z,22.49
2022-09-21T11:01:55.577Z,22.98
2022-09-21T11:04:42.918Z,22.59
2022-09-21T11:07:20.238Z,22.95
2022-09-21T11:10:04.183Z,23.21
2022-09-21T11:12:54.207Z,23.53
2022-09-21T11:15:39.937Z,23.43
2022-09-21T11:18:21.765Z,23.18
2022-09-21T11:20:57.421Z,23.51
2022-09-21T11:23:48.474Z,22.70
2022-09-21T11:26:30.378Z,23.30
2022-09-21T11:29:06.954Z,22.94
2022-09-21T11:32:06.087Z,22.82
2022-09-21T11:35:27.444Z,22.33
2022-09-21T11:38:10.683Z,22.40
2022-09-21T11:41:19.569Z,22.69
2022-09-21T11:44:14.549Z,21.82
2022-09-21T11:46:52.842Z,21.82
2022-09-21T11:49:42.613Z,22.37
2022-09-21T11:52:33.212Z,23.06
2022-09-21T11:55:30.244Z,23.22
2022-09-21T11:58:11.513Z,22.22
2022-09-21T12:01:02.789Z,22.67
2022-09-21T12:04:18.088Z,23.08
2022-09-21T12:07:08.037Z,22.12
2022-09-21T12:09:54.928Z,21.92
2022-09-21T12:12:34.820Z,21.09
2022-09-21T12:15:14.961Z,21.42
2022-09-21T12:17:58.476Z,22.80
2022-09-21T12:20:43.869Z,22.43
2022-09-21T12:23:19.943Z,22.86
2022-09-21T12:25:57.245Z,22.62
2022-09-21T12:28:32.391Z,22.49
2022-09-21T12:31:05.523Z,22.43
2022-09-21T12:33:42.936Z,22.83
2022-09-21T12:36:18.002Z,22.74
2022-09-21T12:38:57.352Z,22.89
2022-09-21T12:41:37.757Z,23.07
2022-09-21T12:44:18.659Z,22.41
2022-09-21T12:46:53.585Z,21.71
2022-09-21T12:49:31.296Z,21.36
2022-09-21T12:52:06.825Z,21.38
2022-09-21T12:54:46.858Z,21.91
2022-09-21T12:58:13.700Z,21.32
2022-09-21T13:00:27.368Z,20.87
2022-09-21T13:03:07.150Z,20.92
2022-09-21T13:05:53.088Z,20.92
2022-09-21T13:08:29.192Z,20.90
2022-09-21T13:11:04.602Z,20.93
2022-09-21T13:13:41.564Z,20.69
2022-09-21T13:16:27.601Z,20.20
2022-09-21T13:18:59.421Z,18.53
2022-09-21T13:21:30.952Z,17.91
2022-09-21T13:24:02.641Z,18.32
2022-09-21T13:26:40.067Z,19.41
2022-09-21T13:29:32.909Z,19.88
2022-09-21T13:32:03.802Z,19.80
2022-09-21T13:34:37.066Z,20.63
2022-09-21T13:37:35.547Z,20.02
2022-09-21T13:40:50.278Z,20.26
2022-09-21T13:43:26.509Z,19.69
2022-09-21T13:45:59.481Z,19.67
2022-09-21T13:48:30.527Z,19.80
2022-09-21T13:51:02.822Z,19.48
2022-09-21T13:53:41.964Z,19.44
2022-09-21T13:56:25.446Z,19.66
2022-09-21T13:58:58.344Z,19.89
2022-09-21T14:01:52.454Z,19.81
2022-09-21T14:04:28.100Z,19.94
2022-09-21T14:06:59.290Z,20.29
2022-09-21T14:09:31.627Z,19.80
2022-09-21T14:12:06.293Z,19.39
2022-09-21T14:14:38.239Z,19.02
2022-09-21T14:17:36.300Z,19.76
2022-09-21T14:20:08.248Z,20.05
2022-09-21T14:22:46.730Z,20.55
2022-09-21T14:25:53.231Z,19.98
2022-09-21T14:28:35.548Z,19.80
2022-09-21T14:31:09.142Z,18.33
2022-09-21T14:33:49.164Z,17.01
2022-09-21T14:36:24.763Z,17.16
2022-09-21T14:39:00.479Z,18.00
2022-09-21T14:41:37.942Z,18.50
2022-09-21T14:44:06.452Z,18.62
2022-09-21T14:46:51.345Z,18.33
2022-09-21T14:49:41.841Z,17.75
2022-09-21T14:52:43.550Z,17.85
2022-09-21T14:55:25.420Z,17.48
2022-09-21T14:58:26.163Z,16.54
2022-09-21T15:00:55.427Z,15.71
2022-09-21T15:04:04.544Z,16.15
2022-09-21T15:06:58.107Z,16.25
2022-09-21T15:10:09.587Z,16.34
2022-09-21T15:12:48.665Z,16.22
2022-09-21T15:15:36.929Z,16.24
2022-09-21T15:18:20.479Z,15.82
2022-09-21T15:21:01.309Z,15.69
2022-09-21T15:23:35.283Z,15.17
2022-09-21T15:26:11.039Z,15.16
2022-09-21T15:29:08.957Z,15.12
2022-09-21T15:31:42.977Z,14.61
2022-09-21T15:34:13.854Z,14.55
2022-09-21T15:36:45.579Z,14.54
2022-09-21T15:39:30.085Z,14.47
2022-09-21T15:42:22.737Z,14.17
2022-09-21T15:45:06.107Z,14.12
2022-09-21T15:47:35.347Z,13.98
2022-09-21T15:50:04.091Z,14.00
2022-09-21T15:52:38.304Z,13.87
2022-09-21T15:55:18.050Z,13.88
2022-09-21T15:57:48.005Z,13.72
2022-09-21T16:00:26.998Z,13.64
2022-09-21T16:03:05.630Z,13.45
2022-09-21T16:05:56.325Z,13.33
2022-09-21T16:08:33.508Z,13.25
2022-09-21T16:11:37.794Z,13.06
2022-09-21T16:14:29.620Z,12.94
2022-09-21T16:17:21.217Z,12.75
2022-09-21T16:20:21.237Z,12.50
2022-09-21T16:22:52.448Z,12.55
2022-09-21T16:25:32.486Z,12.41
2022-09-21T16:28:04.860Z,12.32
2022-09-21T16:30:51.103Z,12.18
2022-09-21T16:33:44.199Z,12.09
2022-09-21T16:36:50.237Z,11.98
2022-09-21T16:39:21.177Z,11.71
2022-09-21T16:41:53.307Z,11.49
2022-09-21T16:44:26.164Z,11.33
2022-09-21T16:46:59.041Z,11.30
2022-09-21T16:49:31.340Z,11.18
2022-09-21T16:52:00.418Z,10.99
2022-09-21T16:54:29.806Z,10.87
2022-09-21T16:57:01.319Z,10.74
2022-09-21T16:59:33.218Z,10.64
2022-09-21T17:02:04.235Z,10.57
2022-09-21T17:04:34.745Z,10.53
2022-09-21T17:07:05.025Z,10.31
2022-09-21T17:09:38.381Z,10.12
2022-09-21T17:12:09.200Z,9.82
2022-09-21T17:14:44.328Z,9.61
2022-09-21T17:17:19.564Z,9.47
2022-09-21T17:19:50.096Z,9.32
2022-09-21T17:22:19.861Z,9.10
2022-09-21T17:24:52.107Z,8.92
2022-09-21T17:27:23.246Z,8.80
2022-09-21T17:29:55.211Z,8.63
2022-09-21T17:32:25.855Z,8.51
2022-09-21T17:35:02.117Z,8.44
2022-09-21T17:37:32.383Z,8.46
2022-09-21T17:40:01.172Z,8.41
2022-09-21T17:42:30.107Z,8.37
2022-09-21T17:45:15.753Z,8.30
2022-09-21T17:47:44.488Z,8.27
2022-09-21T17:50:26.248Z,8.24
2022-09-21T17:53:14.370Z,8.16
2022-09-21T17:55:54.361Z,8.06
2022-09-21T17:58:45.492Z,7.98
2022-09-21T18:01:30.984Z,7.98
2022-09-21T18:04:00.652Z,7.96
2022-09-21T18:06:29.677Z,7.95
2022-09-21T18:09:01.661Z,7.92
2022-09-21T18:11:56.829Z,7.88
2022-09-21T18:14:41.162Z,7.81
2022-09-21T18:17:38.441Z,7.71
2022-09-21T18:20:23.561Z,7.57
2022-09-21T18:23:03.673Z,7.49
2022-09-21T18:25:47.551Z,7.45
2022-09-21T18:28:28.858Z,7.45
2022-09-21T18:31:08.501Z,7.42
2022-09-21T18:33:56.804Z,7.38
2022-09-21T18:36:33.796Z,7.28
2022-09-21T18:39:22.510Z,7.33
2022-09-21T18:42:16.660Z,7.29
2022-09-21T18:44:57.552Z,7.24
2022-09-21T18:47:36.422Z,7.21
2022-09-21T18:50:24.630Z,7.22
2022-09-21T18:53:06.556Z,7.21
2022-09-21T18:55:37.275Z,7.18
2022-09-21T18:58:06.374Z,7.12
2022-09-21T19:00:35.657Z,7.14
2022-09-21T19:03:23.306Z,7.21
2022-09-21T19:06:15.871Z,7.22
2022-09-21T19:08:53.969Z,7.23
2022-09-21T19:11:34.917Z,7.19
2022-09-21T19:14:18.624Z,7.12
2022-09-21T19:17:06.135Z,7.13
2022-09-21T19:19:46.923Z,7.04
2022-09-21T19:22:29.898Z,6.91
2022-09-21T19:25:06.644Z,6.91
2022-09-21T19:27:40.188Z,6.95
2022-09-21T19:30:12.763Z,6.92
2022-09-21T19:32:46.997Z,6.89
2022-09-21T19:35:23.611Z,6.88
2022-09-21T19:37:55.952Z,6.90
2022-09-21T19:40:27.831Z,6.88
2022-09-21T19:43:23.105Z,6.89
2022-09-21T19:46:22.126Z,6.89
2022-09-21T19:48:56.965Z,6.86
2022-09-21T19:51:49.073Z,6.81
2022-09-21T19:54:40.252Z,6.83
2022-09-21T19:57:33.277Z,6.83
2022-09-21T20:00:03.261Z,6.84
2022-09-21T20:02:40.547Z,6.82
2022-09-21T20:05:16.080Z,6.84
2022-09-21T20:07:55.711Z,6.82
2022-09-21T20:10:36.428Z,6.81
2022-09-21T20:13:22.046Z,6.82
2022-09-21T20:15:57.488Z,6.76
2022-09-21T20:18:38.714Z,6.78
2022-09-21T20:21:14.699Z,6.76
2022-09-21T20:23:43.816Z,6.68
2022-09-21T20:26:24.940Z,6.63
2022-09-21T20:28:55.317Z,6.57
2022-09-21T20:31:26.506Z,6.46
2022-09-21T20:33:54.732Z,6.38
2022-09-21T20:36:23.355Z,6.25
2022-09-21T20:38:51.603Z,6.17
2022-09-21T20:41:22.230Z,6.21
2022-09-21T20:43:50.442Z,6.30
2022-09-21T20:46:18.766Z,6.37
2022-09-21T20:48:48.200Z,6.43
2022-09-21T20:51:16.676Z,6.45
2022-09-21T20:53:45.290Z,6.46
2022-09-21T20:56:13.862Z,6.40
2022-09-21T20:58:43.372Z,6.34
2022-09-21T21:01:11.613Z,6.26
2022-09-21T21:03:39.870Z,6.22
2022-09-21T21:06:13.764Z,6.19
2022-09-21T21:08:42.081Z,6.25
2022-09-21T21:11:11.216Z,6.20
2022-09-21T21:13:39.492Z,6.24
2022-09-21T21:16:12.041Z,6.24
2022-09-21T21:18:41.571Z,6.22
2022-09-21T21:21:10.122Z,6.20
2022-09-21T21:23:52.708Z,6.16
2022-09-21T21:26:29.479Z,6.12
2022-09-21T21:29:10.291Z,6.06
2022-09-21T21:31:39.977Z,6.03
2022-09-21T21:34:08.534Z,6.09
2022-09-21T21:36:36.848Z,6.11
2022-09-21T21:39:05.338Z,6.08
2022-09-21T21:41:34.443Z,6.18
2022-09-21T21:44:03.073Z,6.17
2022-09-21T21:46:31.812Z,6.12
2022-09-21T21:49:01.836Z,6.10
2022-09-21T21:51:30.213Z,6.09
2022-09-21T21:53:58.827Z,6.05
2022-09-21T21:56:27.139Z,6.08
2022-09-21T21:58:56.290Z,6.07
2022-09-21T22:01:28.108Z,6.11
2022-09-21T22:03:59.460Z,6.11
2022-09-21T22:06:31.994Z,6.12
2022-09-21T22:09:01.451Z,6.05
2022-09-21T22:11:32.232Z,5.90
2022-09-21T22:14:02.624Z,5.86
2022-09-21T22:16:34.202Z,5.81
2022-09-21T22:19:05.222Z,5.83
2022-09-21T22:21:40.900Z,5.80
2022-09-21T22:24:10.757Z,5.85
2022-09-21T22:26:46.065Z,5.92
2022-09-21T22:29:16.669Z,5.97
2022-09-21T22:31:48.238Z,5.97
2022-09-21T22:34:17.683Z,6.04
2022-09-21T22:36:47.276Z,6.11
2022-09-21T22:39:15.957Z,6.18
2022-09-21T22:41:44.688Z,6.24
2022-09-21T22:44:13.212Z,6.52
2022-09-21T22:46:41.789Z,6.84
2022-09-21T22:49:10.054Z,6.63
2022-09-21T22:51:38.952Z,6.38
2022-09-21T22:54:08.594Z,6.10
2022-09-21T22:56:37.086Z,5.83
2022-09-21T22:59:06.789Z,5.64
2022-09-21T23:01:37.658Z,5.41
2022-09-21T23:04:09.191Z,5.27
2022-09-21T23:06:40.223Z,5.21
2022-09-21T23:09:14.800Z,5.13
2022-09-21T23:11:47.357Z,5.11
2022-09-21T23:14:17.548Z,5.11
2022-09-21T23:16:46.623Z,5.09
2022-09-21T23:19:16.361Z,5.00
2022-09-21T23:21:47.048Z,4.95
2022-09-21T23:24:16.945Z,4.90
2022-09-21T23:26:45.811Z,4.81
2022-09-21T23:29:16.522Z,4.85
2022-09-21T23:31:46.422Z,4.83
2022-09-21T23:34:16.108Z,4.79
2022-09-21T23:36:45.790Z,4.75
2022-09-21T23:39:16.615Z,4.75
2022-09-21T23:41:45.360Z,4.75
2022-09-21T23:44:13.545Z,4.69
2022-09-21T23:46:42.443Z,4.61
2022-09-21T23:49:11.311Z,4.59
2022-09-21T23:51:39.737Z,4.57
2022-09-21T23:54:08.543Z,4.59
2022-09-21T23:56:38.686Z,4.64
2022-09-21T23:59:06.974Z,4.61
